createdAt,value
2023-03-10T06:10:47.938Z,98851.44
2023-03-10T06:15:51.259Z,98830.19
2023-03-10T06:20:53.750Z,98831.78
2023-03-10T06:26:00.927Z,98842.34
2023-03-10T06:31:05.984Z,98843.19
2023-03-10T06:36:10.512Z,98821.06
2023-03-10T06:41:12.690Z,98829.19
2023-03-10T06:46:15.393Z,98819.16
2023-03-10T06:51:20.106Z,98820.22
2023-03-10T06:56:22.856Z,98826.41
2023-03-10T07:01:31.393Z,98825.50
2023-03-10T07:06:33.721Z,98817.69
2023-03-10T07:11:36.326Z,98819.81
2023-03-10T07:16:41.302Z,98814.56
2023-03-10T07:21:43.415Z,98814.09
2023-03-10T07:26:45.495Z,98822.31
2023-03-10T07:31:47.560Z,98808.78
2023-03-10T07:36:49.728Z,98817.69
2023-03-10T07:41:51.811Z,98804.00
2023-03-10T07:46:53.995Z,98820.16
2023-03-10T07:51:56.614Z,98817.66
2023-03-10T07:56:58.715Z,98809.28
2023-03-10T08:02:00.841Z,98810.72
2023-03-10T08:07:02.899Z,98795.59
2023-03-10T08:12:05.500Z,98788.03
2023-03-10T08:17:07.581Z,98788.16
2023-03-10T08:22:10.392Z,98781.00
2023-03-10T08:27:12.515Z,98761.56
2023-03-10T08:32:14.655Z,98762.34
2023-03-10T08:37:16.865Z,98757.94
2023-03-10T08:42:19.050Z,98745.66
2023-03-10T08:47:21.161Z,98752.47
2023-03-10T08:52:24.626Z,98739.03
2023-03-10T08:57:26.837Z,98733.41
2023-03-10T09:02:29.599Z,98733.38
2023-03-10T09:07:31.768Z,98721.25
2023-03-10T09:12:36.944Z,98717.44
2023-03-10T09:17:41.115Z,98709.78
2023-03-10T09:22:44.023Z,98712.84
2023-03-10T09:27:46.795Z,98705.59
2023-03-10T09:32:49.169Z,98701.38
2023-03-10T09:37:51.370Z,98698.09
2023-03-10T09:43:03.792Z,98701.47
2023-03-10T09:48:18.792Z,98679.88
2023-03-10T09:53:39.028Z,98665.38
2023-03-10T09:58:44.072Z,98677.13
2023-03-10T10:03:53.353Z,98656.97
2023-03-10T10:09:04.998Z,98660.09
2023-03-10T10:14:22.375Z,98651.09
2023-03-10T10:19:28.597Z,98640.59
2023-03-10T10:24:30.680Z,98609.56
2023-03-10T10:29:36.592Z,98608.31
2023-03-10T10:34:44.292Z,98592.94
2023-03-10T10:39:50.865Z,98579.41
2023-03-10T10:44:58.708Z,98578.50
2023-03-10T10:50:19.227Z,98573.41
2023-03-10T10:55:35.633Z,98566.88
2023-03-10T11:00:38.531Z,98570.06
2023-03-10T11:05:40.778Z,98564.84
2023-03-10T11:10:42.981Z,98550.94
2023-03-10T11:16:13.773Z,98542.22
2023-03-10T11:21:26.006Z,98521.13
2023-03-10T11:26:28.073Z,98515.56
2023-03-10T11:31:52.206Z,98507.06
2023-03-10T11:37:29.947Z,98492.34
2023-03-10T11:42:43.140Z,98507.75
2023-03-10T11:47:55.956Z,98473.81
2023-03-10T11:53:06.620Z,98453.16
2023-03-10T11:58:21.432Z,98459.13
2023-03-10T12:03:48.585Z,98433.81
2023-03-10T12:08:55.592Z,98424.50
2023-03-10T12:14:01.786Z,98420.00
2023-03-10T12:19:06.197Z,98419.00
2023-03-10T12:24:37.187Z,98418.00
2023-03-10T12:29:42.122Z,98390.81
2023-03-10T12:34:44.253Z,98385.53
2023-03-10T12:39:46.418Z,98395.56
2023-03-10T12:45:02.768Z,98364.44
2023-03-10T12:50:26.469Z,98337.97
2023-03-10T12:55:29.586Z,98327.09
2023-03-10T13:00:44.717Z,98321.94
2023-03-10T13:05:57.853Z,98331.53
2023-03-10T13:11:01.782Z,98314.19
2023-03-10T13:16:06.847Z,98303.84
2023-03-10T13:21:24.919Z,98316.28
2023-03-10T13:26:27.978Z,98319.38
2023-03-10T13:31:32.546Z,98296.59
2023-03-10T13:36:37.214Z,98288.28
2023-03-10T13:41:57.968Z,98283.25
2023-03-10T13:47:02.401Z,98266.69
2023-03-10T13:52:13.750Z,98237.47
2023-03-10T13:57:31.476Z,98226.63
2023-03-10T14:02:36.730Z,98221.44
2023-03-10T14:07:39.084Z,98202.59
2023-03-10T14:12:42.582Z,98197.78
2023-03-10T14:17:46.789Z,98204.25
2023-03-10T14:22:48.837Z,98230.84
2023-03-10T14:28:09.073Z,98221.94
2023-03-10T14:33:13.403Z,98214.50
2023-03-10T14:38:16.618Z,98184.47
2023-03-10T14:43:23.167Z,98216.22
2023-03-10T14:48:27.846Z,98193.03
2023-03-10T14:53:31.878Z,98192.47
2023-03-10T14:58:40.481Z,98175.19
2023-03-10T15:03:42.580Z,98161.78
2023-03-10T15:08:44.740Z,98163.63
2023-03-10T15:13:46.834Z,98167.59
2023-03-10T15:18:49.336Z,98162.94
2023-03-10T15:23:51.478Z,98156.31
2023-03-10T15:28:53.542Z,98149.59
2023-03-10T15:33:55.634Z,98164.47
2023-03-10T15:38:57.735Z,98153.66
2023-03-10T15:43:59.872Z,98157.63
2023-03-10T15:49:03.902Z,98147.91
2023-03-10T15:54:06.099Z,98166.78
2023-03-10T15:59:08.326Z,98143.50
2023-03-10T16:04:10.406Z,98139.59
2023-03-10T16:09:12.493Z,98137.16
2023-03-10T16:14:14.650Z,98128.34
2023-03-10T16:19:16.746Z,98133.94
2023-03-10T16:24:20.078Z,98132.09
2023-03-10T16:29:22.480Z,98129.09
2023-03-10T16:34:24.586Z,98147.13
2023-03-10T16:39:27.303Z,98142.22
2023-03-10T16:44:29.854Z,98159.94
2023-03-10T16:49:32.414Z,98163.63
2023-03-10T16:54:34.505Z,98170.09
2023-03-10T16:59:36.553Z,98178.75
2023-03-10T17:04:38.838Z,98177.47
2023-03-10T17:09:40.996Z,98171.72
2023-03-10T17:14:44.042Z,98186.94
2023-03-10T17:19:46.305Z,98189.06
2023-03-10T17:24:55.790Z,98196.47
2023-03-10T17:29:58.004Z,98200.28
2023-03-10T17:35:00.166Z,98200.34
2023-03-10T17:40:02.247Z,98204.19
2023-03-10T17:45:06.820Z,98194.78
2023-03-10T17:50:09.762Z,98199.28
2023-03-10T17:55:11.905Z,98198.78
2023-03-10T18:00:14.970Z,98186.78
2023-03-10T18:05:17.741Z,98198.97
2023-03-10T18:10:21.629Z,98193.22
2023-03-10T18:15:23.670Z,98187.13
2023-03-10T18:20:26.064Z,98192.09
2023-03-10T18:25:28.164Z,98195.16
2023-03-10T18:30:30.354Z,98213.25
2023-03-10T18:35:32.442Z,98230.75
2023-03-10T18:40:34.529Z,98233.34
2023-03-10T18:45:39.383Z,98219.38
2023-03-10T18:50:41.438Z,98222.25
2023-03-10T18:55:43.521Z,98217.94
2023-03-10T19:00:45.950Z,98244.38
2023-03-10T19:05:54.873Z,98250.25
2023-03-10T19:10:59.101Z,98226.97
2023-03-10T19:16:06.793Z,98228.41
2023-03-10T19:21:09.854Z,98242.06
2023-03-10T19:26:12.431Z,98255.53
2023-03-10T19:31:16.078Z,98237.56
2023-03-10T19:36:18.353Z,98227.13
2023-03-10T19:41:20.898Z,98241.00
2023-03-10T19:46:23.021Z,98218.72
2023-03-10T19:51:27.293Z,98202.87
2023-03-10T19:56:29.661Z,98199.41
2023-03-10T20:01:32.629Z,98223.47
2023-03-10T20:06:34.851Z,98204.84
2023-03-10T20:11:40.848Z,98222.50
2023-03-10T20:16:42.981Z,98200.59
2023-03-10T20:21:46.284Z,98201.47
2023-03-10T20:26:49.304Z,98203.50
2023-03-10T20:31:51.527Z,98197.09
2023-03-10T20:36:53.644Z,98184.94
2023-03-10T20:41:55.719Z,98163.59
2023-03-10T20:46:57.883Z,98154.56
2023-03-10T20:51:59.989Z,98154.56
2023-03-10T20:57:02.052Z,98114.53
2023-03-10T21:02:05.562Z,98129.53
2023-03-10T21:07:07.647Z,98153.53
2023-03-10T21:12:09.911Z,98162.81
2023-03-10T21:17:12.568Z,98144.53
2023-03-10T21:22:14.742Z,98162.72
2023-03-10T21:27:16.910Z,98154.66
2023-03-10T21:32:19.046Z,98168.72
2023-03-10T21:37:21.119Z,98175.69
2023-03-10T21:42:23.629Z,98180.56
2023-03-10T21:47:25.729Z,98182.88
2023-03-10T21:52:27.869Z,98186.31
2023-03-10T21:57:29.937Z,98182.13
2023-03-10T22:02:35.567Z,98170.69
2023-03-10T22:07:38.771Z,98171.09
2023-03-10T22:12:41.188Z,98195.06
2023-03-10T22:17:43.369Z,98184.72
2023-03-10T22:22:45.649Z,98186.81
2023-03-10T22:27:53.019Z,98190.47
2023-03-10T22:32:55.996Z,98185.53
2023-03-10T22:37:58.087Z,98174.69
2023-03-10T22:43:00.186Z,98176.31
2023-03-10T22:48:05.394Z,98172.28
2023-03-10T22:53:12.421Z,98171.50
2023-03-10T22:58:16.244Z,98153.81
2023-03-10T23:03:18.482Z,98164.66
2023-03-10T23:08:20.723Z,98176.97
2023-03-10T23:13:22.958Z,98187.81
2023-03-10T23:18:25.042Z,98189.72
2023-03-10T23:23:27.112Z,98194.66
2023-03-10T23:28:29.190Z,98180.81
2023-03-10T23:33:31.341Z,98202.50
2023-03-10T23:38:35.902Z,98201.41
2023-03-10T23:43:38.288Z,98202.72
2023-03-10T23:48:40.404Z,98191.00
2023-03-10T23:53:43.338Z,98204.31
2023-03-10T23:58:45.501Z,98213.81
